createdAt,value
2024-05-09T00:00:57.492Z,29.43
2024-05-09T00:03:02.228Z,25.90
2024-05-09T00:05:07.473Z,25.97
2024-05-09T00:07:12.234Z,23.67
2024-05-09T00:09:16.927Z,23.90
2024-05-09T00:11:23.191Z,26.23
2024-05-09T00:13:30.599Z,22.87
2024-05-09T00:15:36.147Z,24.27
2024-05-09T00:17:41.520Z,23.83
2024-05-09T00:19:47.004Z,22.43
2024-05-09T00:21:51.792Z,25.63
2024-05-09T00:23:56.498Z,22.07
2024-05-09T00:26:01.256Z,24.23
2024-05-09T00:28:08.857Z,22.83
2024-05-09T00:30:24.219Z,28.27
2024-05-09T00:32:36.443Z,22.87
2024-05-09T00:34:41.329Z,26.50
2024-05-09T00:36:46.019Z,24.00
2024-05-09T00:38:50.622Z,23.50
2024-05-09T00:40:55.328Z,26.40
2024-05-09T00:43:00.011Z,26.53
2024-05-09T00:45:02.137Z,24.63
2024-05-09T00:47:09.941Z,26.13
2024-05-09T00:49:15.060Z,28.23
2024-05-09T00:51:20.074Z,26.30
2024-05-09T00:53:24.874Z,23.77
2024-05-09T00:55:30.512Z,25.87
2024-05-09T00:57:35.460Z,25.00
2024-05-09T00:59:40.346Z,24.57
2024-05-09T01:01:46.206Z,24.70
2024-05-09T01:03:52.232Z,23.03
2024-05-09T01:06:01.254Z,25.63
2024-05-09T01:08:07.707Z,27.03
2024-05-09T01:10:17.414Z,26.53
2024-05-09T01:13:21.959Z,30.00
2024-05-09T01:15:30.563Z,28.90
2024-05-09T01:17:36.297Z,36.73
2024-05-09T01:19:41.223Z,26.40
2024-05-09T01:21:46.424Z,22.50
2024-05-09T01:23:54.144Z,27.47
2024-05-09T01:25:59.209Z,21.50
2024-05-09T01:28:04.213Z,24.17
2024-05-09T01:30:17.289Z,29.70
2024-05-09T01:32:26.481Z,23.97
2024-05-09T01:34:31.420Z,24.60
2024-05-09T01:36:37.330Z,29.90
2024-05-09T01:38:42.422Z,24.07
2024-05-09T01:40:50.887Z,24.33
2024-05-09T01:42:55.855Z,23.10
2024-05-09T01:45:00.767Z,25.33
2024-05-09T01:47:05.699Z,24.50
2024-05-09T01:49:08.229Z,23.13
2024-05-09T01:51:13.599Z,25.87
2024-05-09T01:53:18.447Z,26.90
2024-05-09T01:55:20.567Z,29.07
2024-05-09T01:57:34.366Z,26.80
2024-05-09T01:59:40.487Z,26.10
2024-05-09T02:01:56.463Z,26.97
2024-05-09T02:04:02.836Z,22.90
2024-05-09T02:06:08.603Z,24.77
2024-05-09T02:08:17.185Z,27.60
2024-05-09T02:10:31.747Z,26.30
2024-05-09T02:12:40.325Z,25.70
2024-05-09T02:14:49.085Z,26.50
2024-05-09T02:16:53.857Z,29.30
2024-05-09T02:18:58.724Z,25.07
2024-05-09T02:21:03.730Z,27.67
2024-05-09T02:23:08.699Z,28.57
2024-05-09T02:25:14.057Z,23.00
2024-05-09T02:27:18.862Z,22.87
2024-05-09T02:29:26.697Z,25.30
2024-05-09T02:31:32.019Z,30.13
2024-05-09T02:33:34.291Z,28.40
2024-05-09T02:35:39.269Z,29.87
2024-05-09T02:37:41.872Z,25.83
2024-05-09T02:39:46.593Z,24.60
2024-05-09T02:41:48.818Z,23.60
2024-05-09T02:43:53.840Z,24.10
2024-05-09T02:45:58.606Z,25.90
2024-05-09T02:48:03.529Z,29.80
2024-05-09T02:50:08.228Z,25.17
2024-05-09T02:52:13.379Z,25.53
2024-05-09T02:54:15.514Z,29.30
2024-05-09T02:56:21.485Z,26.03
2024-05-09T02:58:24.824Z,28.50
2024-05-09T03:00:37.649Z,32.10
2024-05-09T03:02:45.754Z,27.03
2024-05-09T03:04:51.634Z,29.10
2024-05-09T03:06:53.804Z,26.30
2024-05-09T03:08:58.549Z,23.73
2024-05-09T03:11:00.803Z,27.53
2024-05-09T03:13:09.074Z,21.13
2024-05-09T03:15:11.406Z,26.30
2024-05-09T03:17:16.216Z,23.20
2024-05-09T03:19:21.166Z,26.63
2024-05-09T03:21:26.212Z,31.90
2024-05-09T03:23:28.460Z,28.90
2024-05-09T03:25:33.360Z,28.50
2024-05-09T03:27:37.968Z,24.60
2024-05-09T03:29:42.907Z,34.23
2024-05-09T03:31:45.434Z,33.30
2024-05-09T03:33:50.347Z,30.50
2024-05-09T03:35:55.136Z,29.47
2024-05-09T03:37:59.964Z,26.83
2024-05-09T03:40:02.929Z,27.47
2024-05-09T03:42:08.226Z,32.10
2024-05-09T03:44:10.430Z,24.93
2024-05-09T03:46:15.424Z,31.47
2024-05-09T03:48:17.872Z,23.60
2024-05-09T03:50:30.135Z,22.87
2024-05-09T03:52:38.723Z,23.50
2024-05-09T03:54:47.927Z,25.73
2024-05-09T03:56:50.049Z,22.20
2024-05-09T03:58:54.787Z,22.73
2024-05-09T04:00:56.991Z,25.03
2024-05-09T04:03:02.430Z,27.53
2024-05-09T04:05:05.205Z,23.20
2024-05-09T04:07:10.304Z,25.97
2024-05-09T04:09:15.160Z,24.47
2024-05-09T04:11:20.103Z,20.53
2024-05-09T04:13:22.303Z,26.53
2024-05-09T04:15:27.151Z,25.30
2024-05-09T04:17:29.753Z,27.17
2024-05-09T04:19:34.805Z,25.13
2024-05-09T04:21:37.022Z,30.33
2024-05-09T04:23:42.334Z,25.33
2024-05-09T04:25:47.208Z,28.40
2024-05-09T04:27:55.753Z,26.63
2024-05-09T04:29:57.901Z,27.27
2024-05-09T04:32:02.813Z,28.80
2024-05-09T04:34:05.573Z,26.23
2024-05-09T04:36:10.663Z,27.97
2024-05-09T04:38:14.225Z,32.30
2024-05-09T04:40:24.477Z,27.23
2024-05-09T04:42:36.202Z,23.70
2024-05-09T04:44:40.899Z,23.77
2024-05-09T04:46:43.476Z,23.13
2024-05-09T04:48:49.153Z,22.77
2024-05-09T04:50:51.618Z,24.40
2024-05-09T04:52:56.689Z,25.60
2024-05-09T04:54:59.075Z,27.13
2024-05-09T04:57:03.850Z,30.87
2024-05-09T04:59:08.804Z,36.13
2024-05-09T05:01:13.576Z,33.80
2024-05-09T05:03:16.765Z,32.87
2024-05-09T05:05:21.959Z,32.63
2024-05-09T05:07:24.344Z,31.30
2024-05-09T05:09:32.488Z,32.03
2024-05-09T05:11:34.809Z,33.33
2024-05-09T05:13:41.505Z,27.57
2024-05-09T05:15:46.716Z,28.30
2024-05-09T05:17:51.758Z,29.33
2024-05-09T05:19:54.884Z,31.87
2024-05-09T05:21:59.820Z,27.57
2024-05-09T05:24:01.932Z,29.60
2024-05-09T05:26:08.108Z,27.20
2024-05-09T05:28:10.709Z,27.65
2024-05-09T05:30:21.266Z,27.83
2024-05-09T05:32:30.394Z,25.92
2024-05-09T05:34:35.385Z,25.83
2024-05-09T05:36:37.615Z,27.08
2024-05-09T05:38:42.761Z,27.08
2024-05-09T05:40:45.129Z,23.98
2024-05-09T05:42:47.328Z,31.17
2024-05-09T05:44:52.199Z,26.42
2024-05-09T05:46:54.379Z,28.50
2024-05-09T05:49:01.817Z,24.65
2024-05-09T05:51:05.804Z,27.88
2024-05-09T05:53:11.041Z,28.92
2024-05-09T05:55:13.538Z,21.88
2024-05-09T05:57:19.120Z,22.15
2024-05-09T05:59:24.022Z,24.00
2024-05-09T06:01:28.915Z,21.48
2024-05-09T06:03:31.454Z,22.65
2024-05-09T06:05:40.062Z,25.33
2024-05-09T06:07:42.763Z,23.05
2024-05-09T06:09:48.277Z,25.95
2024-05-09T06:11:52.164Z,21.63
2024-05-09T06:13:56.974Z,20.70
2024-05-09T06:16:00.781Z,21.02
2024-05-09T06:18:08.067Z,26.00
2024-05-09T06:20:20.141Z,23.45
2024-05-09T06:22:31.913Z,24.20
2024-05-09T06:24:34.012Z,20.85
2024-05-09T06:26:38.821Z,29.73
2024-05-09T06:28:41.065Z,24.80
2024-05-09T06:30:45.802Z,24.92
2024-05-09T06:32:48.013Z,24.50
2024-05-09T06:34:52.897Z,21.42
2024-05-09T06:36:55.108Z,23.92
2024-05-09T06:39:02.475Z,23.13
2024-05-09T06:41:05.935Z,31.02
2024-05-09T06:43:14.367Z,24.73
2024-05-09T06:45:17.062Z,22.65
2024-05-09T06:47:21.940Z,23.13
2024-05-09T06:49:29.130Z,20.02
2024-05-09T06:51:34.015Z,26.08
2024-05-09T06:53:39.168Z,24.30
2024-05-09T06:55:46.896Z,21.38
2024-05-09T06:57:49.580Z,24.20
2024-05-09T06:59:56.661Z,22.83
2024-05-09T07:01:58.873Z,24.33
2024-05-09T07:04:03.809Z,21.55
2024-05-09T07:06:06.118Z,22.70
2024-05-09T07:08:11.114Z,20.65
2024-05-09T07:10:21.529Z,22.90
2024-05-09T07:12:33.705Z,21.70
2024-05-09T07:14:37.983Z,22.50
2024-05-09T07:16:44.526Z,23.45
2024-05-09T07:18:49.730Z,25.02
2024-05-09T07:20:54.714Z,27.63
2024-05-09T07:22:56.971Z,26.80
2024-05-09T07:25:01.791Z,22.92
2024-05-09T07:27:04.588Z,21.35
2024-05-09T07:29:12.015Z,24.85
2024-05-09T07:31:14.224Z,24.90
2024-05-09T07:33:20.303Z,20.58
2024-05-09T07:35:24.125Z,20.73
2024-05-09T07:37:28.842Z,28.10
2024-05-09T07:39:31.023Z,23.17
2024-05-09T07:41:36.079Z,22.30
2024-05-09T07:43:40.922Z,24.05
2024-05-09T07:45:53.691Z,23.23
2024-05-09T07:49:44.350Z,23.10
2024-05-09T07:53:32.387Z,24.98
2024-05-09T07:54:52.913Z,22.02
2024-05-09T07:56:55.525Z,28.05
2024-05-09T07:59:00.379Z,22.85
2024-05-09T08:01:05.706Z,19.65
2024-05-09T08:03:13.117Z,23.08
2024-05-09T08:05:15.714Z,21.42
2024-05-09T08:07:21.721Z,19.00
2024-05-09T08:09:23.860Z,20.73
2024-05-09T08:11:28.895Z,20.13
2024-05-09T08:13:31.038Z,24.05
2024-05-09T08:15:37.855Z,21.90
2024-05-09T08:17:42.815Z,22.55
2024-05-09T08:19:47.888Z,23.00
2024-05-09T08:21:50.261Z,19.67
2024-05-09T08:23:55.101Z,21.65
2024-05-09T08:25:57.261Z,22.05
2024-05-09T08:28:02.134Z,26.13
2024-05-09T08:30:06.252Z,19.23
2024-05-09T08:32:14.218Z,21.10
2024-05-09T08:34:21.669Z,20.42
2024-05-09T08:36:26.684Z,21.55
2024-05-09T08:38:30.701Z,21.13
2024-05-09T08:40:37.268Z,21.80
2024-05-09T08:42:47.938Z,19.98
2024-05-09T08:44:53.113Z,18.92
2024-05-09T08:46:55.455Z,17.63
2024-05-09T08:49:00.469Z,24.65
2024-05-09T08:51:06.486Z,17.58
2024-05-09T08:53:11.504Z,18.63
2024-05-09T08:55:14.325Z,19.38
2024-05-09T08:57:19.837Z,17.35
2024-05-09T08:59:28.085Z,18.88
2024-05-09T09:01:37.987Z,17.05
2024-05-09T09:03:41.711Z,12.57
2024-05-09T09:05:52.840Z,14.40
2024-05-09T09:07:57.716Z,17.58
2024-05-09T09:10:03.239Z,22.20
2024-05-09T09:12:08.573Z,17.85
2024-05-09T09:14:15.460Z,28.92
2024-05-09T09:16:17.812Z,15.60
2024-05-09T09:18:22.946Z,16.13
2024-05-09T09:20:33.853Z,18.15
2024-05-09T09:22:42.475Z,20.80
2024-05-09T09:24:47.511Z,30.42
2024-05-09T09:26:52.713Z,15.82
2024-05-09T09:29:00.175Z,13.30
2024-05-09T09:31:05.627Z,23.20
2024-05-09T09:33:10.770Z,12.52
2024-05-09T09:35:15.842Z,13.77
2024-05-09T09:37:23.005Z,12.25
2024-05-09T09:39:30.790Z,16.83
2024-05-09T09:41:37.284Z,10.65
2024-05-09T09:43:43.227Z,8.68
2024-05-09T09:45:46.446Z,10.05
2024-05-09T09:47:51.951Z,9.93
2024-05-09T09:49:54.380Z,18.52
2024-05-09T09:52:00.015Z,12.52
2024-05-09T09:54:03.445Z,20.58
2024-05-09T09:56:10.254Z,10.82
2024-05-09T09:58:16.974Z,9.45
2024-05-09T10:00:26.838Z,8.00
2024-05-09T10:02:35.761Z,9.43
2024-05-09T10:04:38.049Z,9.90
2024-05-09T10:06:45.662Z,8.88
2024-05-09T10:08:48.544Z,9.18
2024-05-09T10:10:53.530Z,9.40
2024-05-09T10:12:59.671Z,7.28
2024-05-09T10:15:10.491Z,14.40
2024-05-09T10:17:12.616Z,12.82
2024-05-09T10:19:25.405Z,11.80
2024-05-09T10:21:30.653Z,14.48
2024-05-09T10:23:34.449Z,8.25
2024-05-09T10:25:39.266Z,11.75
2024-05-09T10:27:41.411Z,9.18
2024-05-09T10:29:55.763Z,7.80
2024-05-09T10:32:00.591Z,8.48
2024-05-09T10:34:09.632Z,7.03
2024-05-09T10:36:12.621Z,8.10
2024-05-09T10:38:17.758Z,7.68
2024-05-09T10:40:26.429Z,8.00
2024-05-09T10:42:36.358Z,11.88
2024-05-09T10:44:38.884Z,12.80
2024-05-09T10:46:42.223Z,8.55
2024-05-09T10:48:50.133Z,10.10
2024-05-09T10:50:52.392Z,9.63
2024-05-09T10:52:57.087Z,16.15
2024-05-09T10:55:00.367Z,13.13
2024-05-09T10:57:07.385Z,14.25
2024-05-09T10:59:09.471Z,15.38
2024-05-09T11:01:14.515Z,10.57
2024-05-09T11:03:17.997Z,10.25
2024-05-09T11:05:25.658Z,9.50
2024-05-09T11:07:28.008Z,11.18
2024-05-09T11:09:34.116Z,9.32
2024-05-09T11:11:36.342Z,7.07
2024-05-09T11:13:42.246Z,9.02
2024-05-09T11:15:44.435Z,8.93
2024-05-09T11:17:49.199Z,13.25
2024-05-09T11:19:51.385Z,8.70
2024-05-09T11:22:01.710Z,7.70
2024-05-09T11:24:05.972Z,9.27
2024-05-09T11:26:15.164Z,6.65
2024-05-09T11:28:17.952Z,8.23
2024-05-09T11:30:29.768Z,6.68
2024-05-09T11:32:37.864Z,7.18
2024-05-09T11:34:43.297Z,7.90
2024-05-09T11:36:45.520Z,6.85
2024-05-09T11:38:53.003Z,7.03
2024-05-09T11:40:56.233Z,6.80
2024-05-09T11:43:01.732Z,8.20
2024-05-09T11:45:04.382Z,13.65
2024-05-09T11:47:09.198Z,14.93
2024-05-09T11:49:12.790Z,21.55
2024-05-09T11:51:17.706Z,9.35
2024-05-09T11:53:19.816Z,14.95
2024-05-09T11:55:27.429Z,6.97
2024-05-09T11:57:33.432Z,8.93
2024-05-09T11:59:36.004Z,7.25
2024-05-09T12:01:43.176Z,7.07
2024-05-09T12:03:48.777Z,5.45
2024-05-09T12:05:56.667Z,10.18
2024-05-09T12:07:59.895Z,9.27
2024-05-09T12:10:06.184Z,11.90
2024-05-09T12:12:13.260Z,9.07
2024-05-09T12:14:18.288Z,6.32
2024-05-09T12:16:20.681Z,11.55
2024-05-09T12:18:26.482Z,8.57
2024-05-09T12:20:35.821Z,10.88
2024-05-09T12:22:43.424Z,7.40
2024-05-09T12:24:45.509Z,13.75
2024-05-09T12:26:51.576Z,9.32
2024-05-09T12:28:56.348Z,10.90
2024-05-09T12:30:58.461Z,19.83
2024-05-09T12:33:03.593Z,12.05
2024-05-09T12:35:06.049Z,7.88
2024-05-09T12:37:08.185Z,12.13
2024-05-09T12:39:12.953Z,11.98
2024-05-09T12:41:15.447Z,8.88
2024-05-09T12:43:20.511Z,9.40
2024-05-09T12:45:25.288Z,9.23
2024-05-09T12:47:30.291Z,12.57
2024-05-09T12:49:32.670Z,11.02
2024-05-09T12:51:37.478Z,13.05
2024-05-09T12:53:39.529Z,7.90
2024-05-09T12:55:53.284Z,9.15
2024-05-09T12:57:59.417Z,10.45
2024-05-09T13:00:05.766Z,8.98
2024-05-09T13:02:12.612Z,8.77
2024-05-09T13:04:17.839Z,6.60
2024-05-09T13:06:20.059Z,7.68
2024-05-09T13:08:24.944Z,8.55
2024-05-09T13:10:32.069Z,11.82
2024-05-09T13:12:38.482Z,12.48
2024-05-09T13:14:40.582Z,10.23
2024-05-09T13:16:45.444Z,9.43
2024-05-09T13:18:50.685Z,7.93
2024-05-09T13:20:56.619Z,9.57
2024-05-09T13:22:59.965Z,11.35
2024-05-09T13:25:04.831Z,5.47
2024-05-09T13:27:07.040Z,10.43
2024-05-09T13:29:11.783Z,7.85
2024-05-09T13:31:14.023Z,10.05
2024-05-09T13:33:19.076Z,7.07
2024-05-09T13:35:23.925Z,7.88
2024-05-09T13:37:28.770Z,10.65
2024-05-09T13:39:30.848Z,7.70
2024-05-09T13:41:35.763Z,9.30
2024-05-09T13:43:38.913Z,9.15
2024-05-09T13:45:43.795Z,8.23
2024-05-09T13:47:46.003Z,13.85
2024-05-09T13:49:51.049Z,9.48
2024-05-09T13:51:56.103Z,9.70
2024-05-09T13:54:01.868Z,9.43
2024-05-09T13:56:04.436Z,17.65
2024-05-09T13:58:09.909Z,7.75
2024-05-09T14:00:26.438Z,6.00
2024-05-09T14:02:37.536Z,4.93
2024-05-09T14:04:40.053Z,8.77
2024-05-09T14:06:45.087Z,5.82
2024-05-09T14:08:50.204Z,6.00
2024-05-09T14:10:56.287Z,7.97
2024-05-09T14:12:58.582Z,12.13
2024-05-09T14:15:03.415Z,7.50
2024-05-09T14:17:05.679Z,11.45
2024-05-09T14:19:12.137Z,8.02
2024-05-09T14:21:14.355Z,7.80
2024-05-09T14:23:20.382Z,7.15
2024-05-09T14:25:26.720Z,7.05
2024-05-09T14:27:32.355Z,6.05
2024-05-09T14:29:35.491Z,9.50
2024-05-09T14:31:40.220Z,8.13
2024-05-09T14:33:42.501Z,8.65
2024-05-09T14:35:47.296Z,11.45
2024-05-09T14:37:49.456Z,14.20
2024-05-09T14:39:54.210Z,8.95
2024-05-09T14:41:59.112Z,8.40
2024-05-09T14:44:03.804Z,9.77
2024-05-09T14:46:06.284Z,8.00
2024-05-09T14:48:11.907Z,5.95
2024-05-09T14:50:23.640Z,9.13
2024-05-09T14:52:32.988Z,8.77
2024-05-09T14:54:35.304Z,10.15
2024-05-09T14:56:40.049Z,5.50
2024-05-09T14:58:44.875Z,8.13
2024-05-09T15:00:51.277Z,5.65
2024-05-09T15:02:55.001Z,9.02
2024-05-09T15:04:57.307Z,6.90
2024-05-09T15:07:02.771Z,6.50
2024-05-09T15:09:06.619Z,8.55
2024-05-09T15:11:11.841Z,7.47
2024-05-09T15:13:16.703Z,8.07
2024-05-09T15:15:24.598Z,8.63
2024-05-09T15:17:27.152Z,12.07
2024-05-09T15:19:32.171Z,10.13
2024-05-09T15:21:34.592Z,9.88
2024-05-09T15:23:39.501Z,9.77
2024-05-09T15:25:41.928Z,7.95
2024-05-09T15:27:46.999Z,10.32
2024-05-09T15:29:49.390Z,17.25
2024-05-09T15:31:56.806Z,9.43
2024-05-09T15:33:59.049Z,6.22
2024-05-09T15:36:03.889Z,6.47
2024-05-09T15:38:07.006Z,9.23
2024-05-09T15:40:18.508Z,7.07
2024-05-09T15:42:27.971Z,8.75
2024-05-09T15:44:32.807Z,6.65
2024-05-09T15:46:34.980Z,9.20
2024-05-09T15:48:44.775Z,16.80
2024-05-09T15:50:47.493Z,8.43
2024-05-09T15:52:53.617Z,8.27
2024-05-09T15:54:55.726Z,10.25
2024-05-09T15:57:00.592Z,9.73
2024-05-09T15:59:03.163Z,16.80
2024-05-09T16:01:08.361Z,7.63
2024-05-09T16:03:11.497Z,18.88
2024-05-09T16:05:17.469Z,11.30
2024-05-09T16:07:22.344Z,9.02
2024-05-09T16:09:24.547Z,8.52
2024-05-09T16:11:29.612Z,7.43
2024-05-09T16:13:31.933Z,10.30
2024-05-09T16:15:37.704Z,16.48
2024-05-09T16:17:39.915Z,12.43
2024-05-09T16:19:44.574Z,7.40
2024-05-09T16:21:49.474Z,21.02
2024-05-09T16:23:54.258Z,12.20
2024-05-09T16:25:56.806Z,10.05
2024-05-09T16:28:02.012Z,12.55
2024-05-09T16:30:09.295Z,6.13
2024-05-09T16:32:16.797Z,19.65
2024-05-09T16:34:19.150Z,20.35
2024-05-09T16:36:29.188Z,19.92
2024-05-09T16:38:33.939Z,23.08
2024-05-09T16:40:41.292Z,45.05
2024-05-09T16:42:43.832Z,14.65
2024-05-09T16:44:48.662Z,10.00
2024-05-09T16:46:52.254Z,9.90
2024-05-09T16:48:58.023Z,13.25
2024-05-09T16:51:00.152Z,9.30
2024-05-09T16:53:05.956Z,14.40
2024-05-09T16:55:11.984Z,18.95
2024-05-09T16:57:16.969Z,8.60
2024-05-09T16:59:21.727Z,12.32
2024-05-09T17:01:28.966Z,11.98
2024-05-09T17:03:31.490Z,9.05
2024-05-09T17:05:36.942Z,8.23
2024-05-09T17:07:40.679Z,15.70
2024-05-09T17:09:45.571Z,10.02
2024-05-09T17:11:50.801Z,9.80
2024-05-09T17:13:55.622Z,9.18
2024-05-09T17:15:57.852Z,8.80
2024-05-09T17:18:05.095Z,10.60
2024-05-09T17:20:22.589Z,5.95
2024-05-09T17:22:32.158Z,6.78
2024-05-09T17:24:37.066Z,6.97
2024-05-09T17:26:39.837Z,5.18
2024-05-09T17:28:47.665Z,7.35
2024-05-09T17:30:50.225Z,9.60
2024-05-09T17:32:55.600Z,5.75
2024-05-09T17:34:57.833Z,19.90
2024-05-09T17:37:03.823Z,39.92
2024-05-09T17:39:06.076Z,22.38
2024-05-09T17:41:11.247Z,9.32
2024-05-09T17:43:13.777Z,12.05
2024-05-09T17:45:21.273Z,24.10
2024-05-09T17:47:24.072Z,9.40
2024-05-09T17:49:29.131Z,8.60
2024-05-09T17:51:31.840Z,9.07
2024-05-09T17:53:39.585Z,11.13
2024-05-09T17:55:41.943Z,12.50
2024-05-09T17:57:46.969Z,16.63
2024-05-09T17:59:51.961Z,12.82
2024-05-09T18:02:01.078Z,9.32
2024-05-09T18:04:03.813Z,7.63
2024-05-09T18:06:08.975Z,9.55
2024-05-09T18:08:11.101Z,8.70
2024-05-09T18:10:22.218Z,7.40
2024-05-09T18:12:28.272Z,8.32
2024-05-09T18:14:33.298Z,5.45
2024-05-09T18:16:35.604Z,9.27
2024-05-09T18:18:43.385Z,6.75
2024-05-09T18:20:46.682Z,8.98
2024-05-09T18:22:51.656Z,10.10
2024-05-09T18:24:53.940Z,11.13
2024-05-09T18:26:59.097Z,8.10
2024-05-09T18:29:01.485Z,10.88
2024-05-09T18:31:06.634Z,7.43
2024-05-09T18:33:10.352Z,24.83
2024-05-09T18:35:18.863Z,12.90
2024-05-09T18:37:21.131Z,6.78
2024-05-09T18:39:26.235Z,8.07
2024-05-09T18:41:28.629Z,6.72
2024-05-09T18:43:42.245Z,8.10
2024-05-09T18:45:47.755Z,10.18
2024-05-09T18:47:53.908Z,11.63
2024-05-09T18:49:56.120Z,12.35
2024-05-09T18:52:03.809Z,11.32
2024-05-09T18:54:06.030Z,10.13
2024-05-09T18:56:11.978Z,11.07
2024-05-09T18:58:17.450Z,10.48
2024-05-09T19:00:33.136Z,8.57
2024-05-09T19:02:39.261Z,8.80
2024-05-09T19:04:45.326Z,10.45
2024-05-09T19:06:49.700Z,6.85
2024-05-09T19:09:00.695Z,7.40
2024-05-09T19:11:02.887Z,13.75
2024-05-09T19:13:11.779Z,13.75
2024-05-09T19:15:15.837Z,6.93
2024-05-09T19:17:20.793Z,8.90
2024-05-09T19:19:23.402Z,8.20
2024-05-09T19:21:28.275Z,10.43
2024-05-09T19:23:32.550Z,8.32
2024-05-09T19:25:40.489Z,11.23
2024-05-09T19:27:42.746Z,9.77
2024-05-09T19:29:47.538Z,6.93
2024-05-09T19:31:49.684Z,10.85
2024-05-09T19:33:54.448Z,9.50
2024-05-09T19:35:56.645Z,8.07
2024-05-09T19:38:01.427Z,11.90
2024-05-09T19:40:06.876Z,13.07
2024-05-09T19:42:16.423Z,9.80
2024-05-09T19:44:20.034Z,8.43
2024-05-09T19:46:25.090Z,8.30
2024-05-09T19:48:27.463Z,8.35
2024-05-09T19:50:40.446Z,12.18
2024-05-09T19:52:45.885Z,9.05
2024-05-09T19:54:52.675Z,12.30
2024-05-09T19:56:56.496Z,18.90
2024-05-09T19:59:04.489Z,10.20
2024-05-09T20:01:06.605Z,8.23
2024-05-09T20:03:15.662Z,15.13
2024-05-09T20:05:18.358Z,16.17
2024-05-09T20:07:23.291Z,12.00
2024-05-09T20:09:28.535Z,12.25
2024-05-09T20:11:34.651Z,11.73
2024-05-09T20:13:39.851Z,13.25
2024-05-09T20:15:47.392Z,18.40
2024-05-09T20:17:49.895Z,13.63
2024-05-09T20:19:55.541Z,14.00
2024-05-09T20:21:57.853Z,16.13
2024-05-09T20:24:02.800Z,13.23
2024-05-09T20:26:05.534Z,17.95
2024-05-09T20:28:10.883Z,12.00
2024-05-09T20:30:20.900Z,13.98
2024-05-09T20:32:32.718Z,28.20
2024-05-09T20:34:35.049Z,11.75
2024-05-09T20:36:40.221Z,12.25
2024-05-09T20:38:42.511Z,13.95
2024-05-09T20:40:47.678Z,16.00
2024-05-09T20:42:50.199Z,13.23
2024-05-09T20:44:55.105Z,13.02
2024-05-09T20:46:58.804Z,14.55
2024-05-09T20:49:08.063Z,15.23
2024-05-09T20:51:10.579Z,9.73
2024-05-09T20:53:18.098Z,13.30
2024-05-09T20:55:21.099Z,12.00
2024-05-09T20:57:26.174Z,10.70
2024-05-09T20:59:28.803Z,12.65
2024-05-09T21:01:37.124Z,11.20
2024-05-09T21:03:43.306Z,13.30
2024-05-09T21:05:50.899Z,19.13
2024-05-09T21:07:53.131Z,10.30
2024-05-09T21:09:57.879Z,17.20
2024-05-09T21:12:00.082Z,18.65
2024-05-09T21:14:04.882Z,11.95
2024-05-09T21:16:08.370Z,13.20
2024-05-09T21:18:13.232Z,15.98
2024-05-09T21:20:20.268Z,11.82
2024-05-09T21:22:31.170Z,12.88
2024-05-09T21:24:33.285Z,13.25
2024-05-09T21:26:38.075Z,9.43
2024-05-09T21:28:40.201Z,15.27
2024-05-09T21:30:44.987Z,11.73
2024-05-09T21:32:47.153Z,10.77
2024-05-09T21:34:51.924Z,15.23
2024-05-09T21:36:54.047Z,11.48
2024-05-09T21:39:01.447Z,15.13
2024-05-09T21:41:03.659Z,11.65
2024-05-09T21:43:12.013Z,14.07
2024-05-09T21:45:14.278Z,14.20
2024-05-09T21:47:19.135Z,12.73
2024-05-09T21:49:21.543Z,15.13
2024-05-09T21:51:26.360Z,15.68
2024-05-09T21:53:28.441Z,11.63
2024-05-09T21:55:35.977Z,13.57
2024-05-09T21:57:38.268Z,11.98
2024-05-09T21:59:43.097Z,11.90
2024-05-09T22:01:45.334Z,13.60
2024-05-09T22:03:51.041Z,15.93
2024-05-09T22:05:53.217Z,12.50
2024-05-09T22:07:57.993Z,15.20
2024-05-09T22:10:00.208Z,13.07
2024-05-09T22:12:08.007Z,15.45
2024-05-09T22:14:10.191Z,16.80
2024-05-09T22:16:15.022Z,13.88
2024-05-09T22:18:17.296Z,10.80
2024-05-09T22:20:29.062Z,18.48
2024-05-09T22:22:38.027Z,18.67
2024-05-09T22:24:42.750Z,15.88
2024-05-09T22:26:44.834Z,14.77
2024-05-09T22:28:52.230Z,21.90
2024-05-09T22:30:55.556Z,15.10
2024-05-09T22:33:00.421Z,14.27
2024-05-09T22:35:03.102Z,17.10
2024-05-09T22:37:07.945Z,14.98
2024-05-09T22:39:10.153Z,14.18
2024-05-09T22:41:15.548Z,16.67
2024-05-09T22:43:19.548Z,20.10
2024-05-09T22:45:27.274Z,15.82
2024-05-09T22:47:29.843Z,22.92
2024-05-09T22:49:34.666Z,16.80
2024-05-09T22:51:36.843Z,19.52
2024-05-09T22:53:41.552Z,13.82
2024-05-09T22:55:43.632Z,15.20
2024-05-09T22:57:48.391Z,15.90
2024-05-09T22:59:50.797Z,18.98
2024-05-09T23:01:58.370Z,17.95
2024-05-09T23:04:00.981Z,14.15
2024-05-09T23:06:08.941Z,14.18
2024-05-09T23:08:11.050Z,15.27
2024-05-09T23:10:21.436Z,18.70
2024-05-09T23:12:30.395Z,15.68
2024-05-09T23:14:35.243Z,14.02
2024-05-09T23:16:37.415Z,13.20
2024-05-09T23:18:44.773Z,15.02
2024-05-09T23:20:46.962Z,17.00
2024-05-09T23:22:51.763Z,17.60
2024-05-09T23:24:53.950Z,11.70
2024-05-09T23:26:58.725Z,17.23
2024-05-09T23:29:01.192Z,17.90
2024-05-09T23:31:05.931Z,13.73
2024-05-09T23:33:09.214Z,14.70
2024-05-09T23:35:16.791Z,12.55
2024-05-09T23:37:18.955Z,12.82
2024-05-09T23:39:23.787Z,14.90
2024-05-09T23:41:25.865Z,16.08
2024-05-09T23:43:30.594Z,18.08
2024-05-09T23:45:32.831Z,10.43
2024-05-09T23:47:38.063Z,15.35
2024-05-09T23:49:40.427Z,13.20
2024-05-09T23:51:47.950Z,13.40
2024-05-09T23:53:50.035Z,14.52
2024-05-09T23:55:54.678Z,11.60
2024-05-09T23:57:56.727Z,16.10
